sensor_id;sensor_type;location;lat;lon;timestamp;temperature;humidity
13229;DHT22;6680;53.220;10.402;2023-12-07T00:00:46;1.70;99.90
13229;DHT22;6680;53.220;10.402;2023-12-07T00:03:13;1.70;99.90
13229;DHT22;6680;53.220;10.402;2023-12-07T00:05:41;1.70;99.90
13229;DHT22;6680;53.220;10.402;2023-12-07T00:08:10;1.60;99.90
13229;DHT22;6680;53.220;10.402;2023-12-07T00:10:37;1.60;99.90
13229;DHT22;6680;53.220;10.402;2023-12-07T00:13:04;1.60;99.90
13229;DHT22;6680;53.220;10.402;2023-12-07T00:15:31;1.60;99.90
13229;DHT22;6680;53.220;10.402;2023-12-07T00:17:57;1.70;99.90
13229;DHT22;6680;53.220;10.402;2023-12-07T00:20:25;1.70;99.90
13229;DHT22;6680;53.220;10.402;2023-12-07T00:22:52;1.70;99.90
13229;DHT22;6680;53.220;10.402;2023-12-07T00:25:20;1.70;99.90
13229;DHT22;6680;53.220;10.402;2023-12-07T00:27:47;1.70;99.90
13229;DHT22;6680;53.220;10.402;2023-12-07T00:30:14;1.60;99.90
13229;DHT22;6680;53.220;10.402;2023-12-07T00:32:41;1.70;99.90
13229;DHT22;6680;53.220;10.402;2023-12-07T00:35:09;1.60;99.90
13229;DHT22;6680;53.220;10.402;2023-12-07T00:37:36;1.60;99.90
13229;DHT22;6680;53.220;10.402;2023-12-07T00:40:04;1.60;99.90
13229;DHT22;6680;53.220;10.402;2023-12-07T00:42:32;1.60;99.90
13229;DHT22;6680;53.220;10.402;2023-12-07T00:45:00;1.50;99.90
13229;DHT22;6680;53.220;10.402;2023-12-07T00:47:27;1.50;99.90
13229;DHT22;6680;53.220;10.402;2023-12-07T00:49:53;1.60;99.90
13229;DHT22;6680;53.220;10.402;2023-12-07T00:52:20;1.60;99.90
13229;DHT22;6680;53.220;10.402;2023-12-07T00:54:47;1.60;99.90
13229;DHT22;6680;53.220;10.402;2023-12-07T00:57:14;1.60;99.90
13229;DHT22;6680;53.220;10.402;2023-12-07T00:59:42;1.60;99.90
13229;DHT22;6680;53.220;10.402;2023-12-07T01:02:09;1.60;99.90
13229;DHT22;6680;53.220;10.402;2023-12-07T01:04:36;1.60;99.90
13229;DHT22;6680;53.220;10.402;2023-12-07T01:07:03;1.60;99.90
13229;DHT22;6680;53.220;10.402;2023-12-07T01:11:57;1.60;99.90
13229;DHT22;6680;53.220;10.402;2023-12-07T01:14:24;1.60;99.90
13229;DHT22;6680;53.220;10.402;2023-12-07T01:16:53;1.60;99.90
13229;DHT22;6680;53.220;10.402;2023-12-07T01:19:19;1.70;99.90
13229;DHT22;6680;53.220;10.402;2023-12-07T01:21:47;1.60;99.90
13229;DHT22;6680;53.220;10.402;2023-12-07T01:24:13;1.60;99.90
13229;DHT22;6680;53.220;10.402;2023-12-07T01:26:40;1.60;99.90
13229;DHT22;6680;53.220;10.402;2023-12-07T01:29:07;1.60;99.90
13229;DHT22;6680;53.220;10.402;2023-12-07T01:31:34;1.70;99.90
13229;DHT22;6680;53.220;10.402;2023-12-07T01:34:02;1.60;99.90
13229;DHT22;6680;53.220;10.402;2023-12-07T01:36:29;1.60;99.90
13229;DHT22;6680;53.220;10.402;2023-12-07T01:38:56;1.60;99.90
13229;DHT22;6680;53.220;10.402;2023-12-07T01:41:22;1.60;99.90
13229;DHT22;6680;53.220;10.402;2023-12-07T01:43:49;1.60;99.90
13229;DHT22;6680;53.220;10.402;2023-12-07T01:46:17;1.70;99.90
13229;DHT22;6680;53.220;10.402;2023-12-07T01:48:44;1.70;99.90
13229;DHT22;6680;53.220;10.402;2023-12-07T01:51:15;1.70;99.90
13229;DHT22;6680;53.220;10.402;2023-12-07T01:53:43;1.70;99.90
13229;DHT22;6680;53.220;10.402;2023-12-07T01:56:10;1.70;99.90
13229;DHT22;6680;53.220;10.402;2023-12-07T01:58:37;1.70;99.90
13229;DHT22;6680;53.220;10.402;2023-12-07T02:01:05;1.70;99.90
13229;DHT22;6680;53.220;10.402;2023-12-07T02:03:32;1.70;99.90
13229;DHT22;6680;53.220;10.402;2023-12-07T02:06:00;1.70;99.90
13229;DHT22;6680;53.220;10.402;2023-12-07T02:08:29;1.70;99.90
13229;DHT22;6680;53.220;10.402;2023-12-07T02:10:56;1.70;99.90
13229;DHT22;6680;53.220;10.402;2023-12-07T02:13:23;1.60;99.90
13229;DHT22;6680;53.220;10.402;2023-12-07T02:15:50;1.60;99.90
13229;DHT22;6680;53.220;10.402;2023-12-07T02:18:22;1.60;99.90
13229;DHT22;6680;53.220;10.402;2023-12-07T02:20:57;1.70;99.90
13229;DHT22;6680;53.220;10.402;2023-12-07T02:23:29;1.70;99.90
13229;DHT22;6680;53.220;10.402;2023-12-07T02:25:59;1.70;99.90
13229;DHT22;6680;53.220;10.402;2023-12-07T02:28:28;1.70;99.90
13229;DHT22;6680;53.220;10.402;2023-12-07T02:30:55;1.70;99.90
13229;DHT22;6680;53.220;10.402;2023-12-07T02:33:22;1.70;99.90
13229;DHT22;6680;53.220;10.402;2023-12-07T02:35:49;1.80;99.90
13229;DHT22;6680;53.220;10.402;2023-12-07T02:38:16;1.80;99.90
13229;DHT22;6680;53.220;10.402;2023-12-07T02:40:44;1.80;99.90
13229;DHT22;6680;53.220;10.402;2023-12-07T02:43:13;1.70;99.90
13229;DHT22;6680;53.220;10.402;2023-12-07T02:45:41;1.80;99.90
13229;DHT22;6680;53.220;10.402;2023-12-07T02:50:35;1.70;99.90
13229;DHT22;6680;53.220;10.402;2023-12-07T02:53:02;1.70;99.90
13229;DHT22;6680;53.220;10.402;2023-12-07T02:55:29;1.70;99.90
13229;DHT22;6680;53.220;10.402;2023-12-07T02:57:56;1.70;99.90
13229;DHT22;6680;53.220;10.402;2023-12-07T03:00:23;1.70;99.90
13229;DHT22;6680;53.220;10.402;2023-12-07T03:02:52;1.70;99.90
13229;DHT22;6680;53.220;10.402;2023-12-07T03:05:19;1.70;99.90
13229;DHT22;6680;53.220;10.402;2023-12-07T03:07:48;1.80;99.90
13229;DHT22;6680;53.220;10.402;2023-12-07T03:10:15;1.70;99.90
13229;DHT22;6680;53.220;10.402;2023-12-07T03:12:42;1.70;99.90
13229;DHT22;6680;53.220;10.402;2023-12-07T03:15:09;1.80;99.90
13229;DHT22;6680;53.220;10.402;2023-12-07T03:17:36;1.80;99.90
13229;DHT22;6680;53.220;10.402;2023-12-07T03:20:05;1.80;99.90
13229;DHT22;6680;53.220;10.402;2023-12-07T03:22:33;1.80;99.90
13229;DHT22;6680;53.220;10.402;2023-12-07T03:25:00;1.80;99.90
13229;DHT22;6680;53.220;10.402;2023-12-07T03:27:26;1.80;99.90
13229;DHT22;6680;53.220;10.402;2023-12-07T03:29:54;1.70;99.90
13229;DHT22;6680;53.220;10.402;2023-12-07T03:32:21;1.70;99.90
13229;DHT22;6680;53.220;10.402;2023-12-07T03:34:48;1.70;99.90
13229;DHT22;6680;53.220;10.402;2023-12-07T03:37:16;1.70;99.90
13229;DHT22;6680;53.220;10.402;2023-12-07T03:39:43;1.80;99.90
13229;DHT22;6680;53.220;10.402;2023-12-07T03:42:10;1.80;99.90
13229;DHT22;6680;53.220;10.402;2023-12-07T03:44:37;1.80;99.90
13229;DHT22;6680;53.220;10.402;2023-12-07T03:47:04;1.70;99.90
13229;DHT22;6680;53.220;10.402;2023-12-07T03:49:31;1.70;99.90
13229;DHT22;6680;53.220;10.402;2023-12-07T03:51:57;1.80;99.90
13229;DHT22;6680;53.220;10.402;2023-12-07T03:54:26;1.80;99.90
13229;DHT22;6680;53.220;10.402;2023-12-07T03:56:53;1.80;99.90
13229;DHT22;6680;53.220;10.402;2023-12-07T03:59:20;1.80;99.90
13229;DHT22;6680;53.220;10.402;2023-12-07T04:01:47;1.80;99.90
13229;DHT22;6680;53.220;10.402;2023-12-07T04:04:14;1.80;99.90
13229;DHT22;6680;53.220;10.402;2023-12-07T04:06:40;1.70;99.90
13229;DHT22;6680;53.220;10.402;2023-12-07T04:09:07;1.80;99.90
13229;DHT22;6680;53.220;10.402;2023-12-07T04:11:35;1.80;99.90
13229;DHT22;6680;53.220;10.402;2023-12-07T04:14:02;1.80;99.90
13229;DHT22;6680;53.220;10.402;2023-12-07T04:16:29;1.80;99.90
13229;DHT22;6680;53.220;10.402;2023-12-07T04:18:56;1.80;99.90
13229;DHT22;6680;53.220;10.402;2023-12-07T04:21:23;1.80;99.90
13229;DHT22;6680;53.220;10.402;2023-12-07T04:23:50;1.80;99.90
13229;DHT22;6680;53.220;10.402;2023-12-07T04:26:17;1.80;99.90
13229;DHT22;6680;53.220;10.402;2023-12-07T04:28:45;1.80;99.90
13229;DHT22;6680;53.220;10.402;2023-12-07T04:31:12;1.80;99.90
13229;DHT22;6680;53.220;10.402;2023-12-07T04:33:39;1.80;99.90
13229;DHT22;6680;53.220;10.402;2023-12-07T04:36:06;1.80;99.90
13229;DHT22;6680;53.220;10.402;2023-12-07T04:38:33;1.80;99.90
13229;DHT22;6680;53.220;10.402;2023-12-07T04:41:00;1.70;99.90
13229;DHT22;6680;53.220;10.402;2023-12-07T04:43:27;1.80;99.90
13229;DHT22;6680;53.220;10.402;2023-12-07T04:45:55;1.70;99.90
13229;DHT22;6680;53.220;10.402;2023-12-07T04:48:22;1.70;99.90
13229;DHT22;6680;53.220;10.402;2023-12-07T04:53:16;1.80;99.90
13229;DHT22;6680;53.220;10.402;2023-12-07T04:55:43;1.80;99.90
13229;DHT22;6680;53.220;10.402;2023-12-07T04:58:13;1.80;99.90
13229;DHT22;6680;53.220;10.402;2023-12-07T05:00:39;1.80;99.90
13229;DHT22;6680;53.220;10.402;2023-12-07T05:03:08;1.80;99.90
13229;DHT22;6680;53.220;10.402;2023-12-07T05:05:35;1.80;99.90
13229;DHT22;6680;53.220;10.402;2023-12-07T05:08:01;1.80;99.90
13229;DHT22;6680;53.220;10.402;2023-12-07T05:10:28;1.80;99.90
13229;DHT22;6680;53.220;10.402;2023-12-07T05:12:55;1.90;99.90
13229;DHT22;6680;53.220;10.402;2023-12-07T05:15:22;1.80;99.90
13229;DHT22;6680;53.220;10.402;2023-12-07T05:17:50;1.80;99.90
13229;DHT22;6680;53.220;10.402;2023-12-07T05:20:18;1.80;99.90
13229;DHT22;6680;53.220;10.402;2023-12-07T05:22:48;1.90;99.90
13229;DHT22;6680;53.220;10.402;2023-12-07T05:25:15;1.80;99.90
13229;DHT22;6680;53.220;10.402;2023-12-07T05:27:41;1.80;99.90
13229;DHT22;6680;53.220;10.402;2023-12-07T05:30:09;1.80;99.90
13229;DHT22;6680;53.220;10.402;2023-12-07T05:32:36;1.90;99.90
13229;DHT22;6680;53.220;10.402;2023-12-07T05:35:04;1.90;99.90
13229;DHT22;6680;53.220;10.402;2023-12-07T05:37:33;1.80;99.90
13229;DHT22;6680;53.220;10.402;2023-12-07T05:40:00;1.90;99.90
13229;DHT22;6680;53.220;10.402;2023-12-07T05:42:27;1.90;99.90
13229;DHT22;6680;53.220;10.402;2023-12-07T05:44:53;1.90;99.90
13229;DHT22;6680;53.220;10.402;2023-12-07T05:47:20;1.90;99.90
13229;DHT22;6680;53.220;10.402;2023-12-07T05:49:48;1.90;99.90
13229;DHT22;6680;53.220;10.402;2023-12-07T05:52:15;1.90;99.90
13229;DHT22;6680;53.220;10.402;2023-12-07T05:54:44;1.90;99.90
13229;DHT22;6680;53.220;10.402;2023-12-07T05:57:12;1.90;99.90
13229;DHT22;6680;53.220;10.402;2023-12-07T05:59:39;1.90;99.90
13229;DHT22;6680;53.220;10.402;2023-12-07T06:02:07;1.90;99.90
13229;DHT22;6680;53.220;10.402;2023-12-07T06:04:34;1.90;99.90
13229;DHT22;6680;53.220;10.402;2023-12-07T06:07:01;1.90;99.90
13229;DHT22;6680;53.220;10.402;2023-12-07T06:09:28;2.00;99.90
13229;DHT22;6680;53.220;10.402;2023-12-07T06:11:56;1.90;99.90
13229;DHT22;6680;53.220;10.402;2023-12-07T06:14:23;1.90;99.90
13229;DHT22;6680;53.220;10.402;2023-12-07T06:19:17;1.90;99.90
13229;DHT22;6680;53.220;10.402;2023-12-07T06:21:44;1.90;99.90
13229;DHT22;6680;53.220;10.402;2023-12-07T06:24:11;1.90;99.90
13229;DHT22;6680;53.220;10.402;2023-12-07T06:26:39;1.90;99.90
13229;DHT22;6680;53.220;10.402;2023-12-07T06:29:07;1.90;99.90
13229;DHT22;6680;53.220;10.402;2023-12-07T06:31:35;2.00;99.90
13229;DHT22;6680;53.220;10.402;2023-12-07T06:34:02;2.00;99.90
13229;DHT22;6680;53.220;10.402;2023-12-07T06:36:28;1.90;99.90
13229;DHT22;6680;53.220;10.402;2023-12-07T06:38:55;1.90;99.90
13229;DHT22;6680;53.220;10.402;2023-12-07T06:41:23;1.90;99.90
13229;DHT22;6680;53.220;10.402;2023-12-07T06:43:50;1.90;99.90
13229;DHT22;6680;53.220;10.402;2023-12-07T06:46:18;1.90;99.90
13229;DHT22;6680;53.220;10.402;2023-12-07T06:48:45;2.00;99.90
13229;DHT22;6680;53.220;10.402;2023-12-07T06:51:12;1.90;99.90
13229;DHT22;6680;53.220;10.402;2023-12-07T06:53:39;1.90;99.90
13229;DHT22;6680;53.220;10.402;2023-12-07T06:56:07;1.90;99.90
13229;DHT22;6680;53.220;10.402;2023-12-07T06:58:34;2.00;99.90
13229;DHT22;6680;53.220;10.402;2023-12-07T07:01:01;2.00;99.90
13229;DHT22;6680;53.220;10.402;2023-12-07T07:03:30;2.10;99.90
13229;DHT22;6680;53.220;10.402;2023-12-07T07:05:56;1.90;99.90
13229;DHT22;6680;53.220;10.402;2023-12-07T07:08:24;2.00;99.90
13229;DHT22;6680;53.220;10.402;2023-12-07T07:10:51;1.90;99.90
13229;DHT22;6680;53.220;10.402;2023-12-07T07:13:18;1.90;99.90
13229;DHT22;6680;53.220;10.402;2023-12-07T07:15:46;2.00;99.90
13229;DHT22;6680;53.220;10.402;2023-12-07T07:18:13;2.00;99.90
13229;DHT22;6680;53.220;10.402;2023-12-07T07:20:42;2.00;99.90
13229;DHT22;6680;53.220;10.402;2023-12-07T07:23:09;2.00;99.90
13229;DHT22;6680;53.220;10.402;2023-12-07T07:25:36;2.00;99.90
13229;DHT22;6680;53.220;10.402;2023-12-07T07:28:04;1.90;99.90
13229;DHT22;6680;53.220;10.402;2023-12-07T07:30:31;1.90;99.90
13229;DHT22;6680;53.220;10.402;2023-12-07T07:32:58;1.90;99.90
13229;DHT22;6680;53.220;10.402;2023-12-07T07:35:25;1.90;99.90
13229;DHT22;6680;53.220;10.402;2023-12-07T07:37:54;1.90;99.90
13229;DHT22;6680;53.220;10.402;2023-12-07T07:40:21;1.80;99.90
13229;DHT22;6680;53.220;10.402;2023-12-07T07:42:47;1.90;99.90
13229;DHT22;6680;53.220;10.402;2023-12-07T07:45:14;1.90;99.90
13229;DHT22;6680;53.220;10.402;2023-12-07T07:47:42;1.90;99.90
13229;DHT22;6680;53.220;10.402;2023-12-07T07:50:09;1.90;99.90
13229;DHT22;6680;53.220;10.402;2023-12-07T07:52:36;1.90;99.90
13229;DHT22;6680;53.220;10.402;2023-12-07T07:55:05;2.00;99.90
13229;DHT22;6680;53.220;10.402;2023-12-07T07:57:32;1.90;99.90
13229;DHT22;6680;53.220;10.402;2023-12-07T08:02:26;2.00;99.90
13229;DHT22;6680;53.220;10.402;2023-12-07T08:04:53;2.00;99.90
13229;DHT22;6680;53.220;10.402;2023-12-07T08:07:20;2.00;99.90
13229;DHT22;6680;53.220;10.402;2023-12-07T08:09:47;2.00;99.90
13229;DHT22;6680;53.220;10.402;2023-12-07T08:12:15;2.10;99.90
13229;DHT22;6680;53.220;10.402;2023-12-07T08:14:42;2.00;99.90
13229;DHT22;6680;53.220;10.402;2023-12-07T08:17:10;2.10;99.90
13229;DHT22;6680;53.220;10.402;2023-12-07T08:19:38;2.20;99.90
13229;DHT22;6680;53.220;10.402;2023-12-07T08:22:05;2.10;99.90
13229;DHT22;6680;53.220;10.402;2023-12-07T08:24:32;2.20;99.90
13229;DHT22;6680;53.220;10.402;2023-12-07T08:26:59;2.20;99.90
13229;DHT22;6680;53.220;10.402;2023-12-07T08:29:27;2.20;99.90
13229;DHT22;6680;53.220;10.402;2023-12-07T08:31:54;2.30;99.90
13229;DHT22;6680;53.220;10.402;2023-12-07T08:34:21;2.30;99.90
13229;DHT22;6680;53.220;10.402;2023-12-07T08:36:47;2.30;99.90
13229;DHT22;6680;53.220;10.402;2023-12-07T08:39:14;2.30;99.90
13229;DHT22;6680;53.220;10.402;2023-12-07T08:41:41;2.20;99.90
13229;DHT22;6680;53.220;10.402;2023-12-07T08:44:08;2.40;99.90
13229;DHT22;6680;53.220;10.402;2023-12-07T08:46:36;2.40;99.90
13229;DHT22;6680;53.220;10.402;2023-12-07T08:49:03;2.40;99.90
13229;DHT22;6680;53.220;10.402;2023-12-07T08:51:30;2.40;99.90
13229;DHT22;6680;53.220;10.402;2023-12-07T08:53:57;2.40;99.90
13229;DHT22;6680;53.220;10.402;2023-12-07T08:56:23;2.50;99.90
13229;DHT22;6680;53.220;10.402;2023-12-07T08:58:51;2.50;99.90
13229;DHT22;6680;53.220;10.402;2023-12-07T09:01:18;2.50;99.90
13229;DHT22;6680;53.220;10.402;2023-12-07T09:03:46;2.70;99.90
13229;DHT22;6680;53.220;10.402;2023-12-07T09:06:13;2.60;99.90
13229;DHT22;6680;53.220;10.402;2023-12-07T09:08:39;2.70;99.90
13229;DHT22;6680;53.220;10.402;2023-12-07T09:11:06;2.70;99.90
13229;DHT22;6680;53.220;10.402;2023-12-07T09:13:33;2.80;99.90
13229;DHT22;6680;53.220;10.402;2023-12-07T09:18:27;2.80;99.90
13229;DHT22;6680;53.220;10.402;2023-12-07T09:20:55;2.80;99.90
13229;DHT22;6680;53.220;10.402;2023-12-07T09:23:22;2.90;99.90
13229;DHT22;6680;53.220;10.402;2023-12-07T09:25:49;2.80;99.90
13229;DHT22;6680;53.220;10.402;2023-12-07T09:28:16;2.80;99.90
13229;DHT22;6680;53.220;10.402;2023-12-07T09:30:43;2.80;99.90
13229;DHT22;6680;53.220;10.402;2023-12-07T09:33:10;2.80;99.90
13229;DHT22;6680;53.220;10.402;2023-12-07T09:35:38;2.90;99.90
13229;DHT22;6680;53.220;10.402;2023-12-07T09:38:06;2.80;99.90
13229;DHT22;6680;53.220;10.402;2023-12-07T09:40:34;2.90;99.90
13229;DHT22;6680;53.220;10.402;2023-12-07T09:43:01;2.90;99.90
13229;DHT22;6680;53.220;10.402;2023-12-07T09:45:27;2.90;99.90
13229;DHT22;6680;53.220;10.402;2023-12-07T09:47:55;2.90;99.90
13229;DHT22;6680;53.220;10.402;2023-12-07T09:50:23;2.90;99.90
13229;DHT22;6680;53.220;10.402;2023-12-07T09:52:51;3.00;99.90
13229;DHT22;6680;53.220;10.402;2023-12-07T09:55:19;3.00;99.90
13229;DHT22;6680;53.220;10.402;2023-12-07T09:57:48;3.10;99.90
13229;DHT22;6680;53.220;10.402;2023-12-07T10:00:15;3.10;99.90
13229;DHT22;6680;53.220;10.402;2023-12-07T10:02:45;3.10;99.90
13229;DHT22;6680;53.220;10.402;2023-12-07T10:05:14;3.10;99.90
13229;DHT22;6680;53.220;10.402;2023-12-07T10:07:43;3.00;99.90
13229;DHT22;6680;53.220;10.402;2023-12-07T10:10:12;3.10;99.90
13229;DHT22;6680;53.220;10.402;2023-12-07T10:12:47;3.10;99.90
13229;DHT22;6680;53.220;10.402;2023-12-07T10:15:15;3.20;99.90
13229;DHT22;6680;53.220;10.402;2023-12-07T10:17:47;3.20;99.90
13229;DHT22;6680;53.220;10.402;2023-12-07T10:20:16;3.30;99.90
13229;DHT22;6680;53.220;10.402;2023-12-07T10:22:43;3.30;99.90
13229;DHT22;6680;53.220;10.402;2023-12-07T10:25:10;3.30;99.90
13229;DHT22;6680;53.220;10.402;2023-12-07T10:27:39;3.40;99.90
13229;DHT22;6680;53.220;10.402;2023-12-07T10:30:09;3.40;99.90
13229;DHT22;6680;53.220;10.402;2023-12-07T10:32:37;3.40;99.90
13229;DHT22;6680;53.220;10.402;2023-12-07T10:35:06;3.50;99.90
13229;DHT22;6680;53.220;10.402;2023-12-07T10:37:33;3.50;99.90
13229;DHT22;6680;53.220;10.402;2023-12-07T10:40:00;3.50;99.90
13229;DHT22;6680;53.220;10.402;2023-12-07T10:42:32;3.80;99.90
13229;DHT22;6680;53.220;10.402;2023-12-07T10:45:04;3.50;99.90
13229;DHT22;6680;53.220;10.402;2023-12-07T10:47:35;3.60;99.90
13229;DHT22;6680;53.220;10.402;2023-12-07T10:50:05;3.60;99.90
13229;DHT22;6680;53.220;10.402;2023-12-07T10:52:36;3.60;99.90
13229;DHT22;6680;53.220;10.402;2023-12-07T10:55:07;3.60;99.90
13229;DHT22;6680;53.220;10.402;2023-12-07T10:57:34;3.60;99.90
13229;DHT22;6680;53.220;10.402;2023-12-07T11:00:03;3.60;99.90
13229;DHT22;6680;53.220;10.402;2023-12-07T11:02:34;3.50;99.90
13229;DHT22;6680;53.220;10.402;2023-12-07T11:05:02;3.70;99.90
13229;DHT22;6680;53.220;10.402;2023-12-07T11:07:37;3.70;99.90
13229;DHT22;6680;53.220;10.402;2023-12-07T11:10:12;3.70;99.90
13229;DHT22;6680;53.220;10.402;2023-12-07T11:12:47;3.60;99.90
13229;DHT22;6680;53.220;10.402;2023-12-07T11:15:17;3.70;99.90
13229;DHT22;6680;53.220;10.402;2023-12-07T11:17:52;3.70;99.90
13229;DHT22;6680;53.220;10.402;2023-12-07T11:20:21;3.70;99.90
13229;DHT22;6680;53.220;10.402;2023-12-07T11:22:49;3.70;99.90
13229;DHT22;6680;53.220;10.402;2023-12-07T11:25:17;3.70;99.90
13229;DHT22;6680;53.220;10.402;2023-12-07T11:27:44;3.60;99.90
13229;DHT22;6680;53.220;10.402;2023-12-07T11:30:14;3.70;99.90
13229;DHT22;6680;53.220;10.402;2023-12-07T11:32:43;3.70;99.90
13229;DHT22;6680;53.220;10.402;2023-12-07T11:35:13;3.60;99.90
13229;DHT22;6680;53.220;10.402;2023-12-07T11:38:04;3.60;99.90
13229;DHT22;6680;53.220;10.402;2023-12-07T11:40:32;3.80;99.90
13229;DHT22;6680;53.220;10.402;2023-12-07T11:43:01;3.80;99.90
13229;DHT22;6680;53.220;10.402;2023-12-07T11:45:40;3.80;99.90
13229;DHT22;6680;53.220;10.402;2023-12-07T11:48:11;3.70;99.90
13229;DHT22;6680;53.220;10.402;2023-12-07T11:50:55;3.80;99.90
13229;DHT22;6680;53.220;10.402;2023-12-07T11:53:22;3.90;99.90
13229;DHT22;6680;53.220;10.402;2023-12-07T11:55:50;3.70;99.90
13229;DHT22;6680;53.220;10.402;2023-12-07T11:58:17;3.80;99.90
13229;DHT22;6680;53.220;10.402;2023-12-07T12:00:44;3.80;99.90
13229;DHT22;6680;53.220;10.402;2023-12-07T12:03:12;3.80;99.90
13229;DHT22;6680;53.220;10.402;2023-12-07T12:05:40;3.80;99.90
13229;DHT22;6680;53.220;10.402;2023-12-07T12:08:08;3.70;99.90
13229;DHT22;6680;53.220;10.402;2023-12-07T12:10:35;3.80;99.90
13229;DHT22;6680;53.220;10.402;2023-12-07T12:13:02;3.90;99.90
13229;DHT22;6680;53.220;10.402;2023-12-07T12:15:30;3.80;99.90
13229;DHT22;6680;53.220;10.402;2023-12-07T12:17:58;3.60;99.90
13229;DHT22;6680;53.220;10.402;2023-12-07T12:22:52;3.80;99.90
13229;DHT22;6680;53.220;10.402;2023-12-07T12:25:21;3.90;99.90
13229;DHT22;6680;53.220;10.402;2023-12-07T12:27:50;3.90;99.90
13229;DHT22;6680;53.220;10.402;2023-12-07T12:30:18;3.90;99.90
13229;DHT22;6680;53.220;10.402;2023-12-07T12:32:45;3.90;99.90
13229;DHT22;6680;53.220;10.402;2023-12-07T12:35:13;3.90;99.90
13229;DHT22;6680;53.220;10.402;2023-12-07T12:37:40;3.90;99.90
13229;DHT22;6680;53.220;10.402;2023-12-07T12:40:08;3.90;99.90
13229;DHT22;6680;53.220;10.402;2023-12-07T12:42:37;3.90;99.90
13229;DHT22;6680;53.220;10.402;2023-12-07T12:45:05;3.90;99.90
13229;DHT22;6680;53.220;10.402;2023-12-07T12:47:33;4.00;99.90
13229;DHT22;6680;53.220;10.402;2023-12-07T12:50:00;3.90;99.90
13229;DHT22;6680;53.220;10.402;2023-12-07T12:52:28;3.90;99.90
13229;DHT22;6680;53.220;10.402;2023-12-07T12:54:56;3.80;99.90
13229;DHT22;6680;53.220;10.402;2023-12-07T12:57:23;3.80;99.90
13229;DHT22;6680;53.220;10.402;2023-12-07T12:59:52;3.70;99.90
13229;DHT22;6680;53.220;10.402;2023-12-07T13:02:19;3.70;99.90
13229;DHT22;6680;53.220;10.402;2023-12-07T13:04:46;3.70;99.90
13229;DHT22;6680;53.220;10.402;2023-12-07T13:07:12;3.70;99.90
13229;DHT22;6680;53.220;10.402;2023-12-07T13:09:39;3.70;99.90
13229;DHT22;6680;53.220;10.402;2023-12-07T13:12:07;3.80;99.90
13229;DHT22;6680;53.220;10.402;2023-12-07T13:14:34;3.70;99.90
13229;DHT22;6680;53.220;10.402;2023-12-07T13:17:05;3.70;99.90
13229;DHT22;6680;53.220;10.402;2023-12-07T13:19:33;3.70;99.90
13229;DHT22;6680;53.220;10.402;2023-12-07T13:22:00;3.70;99.90
13229;DHT22;6680;53.220;10.402;2023-12-07T13:24:27;3.70;99.90
13229;DHT22;6680;53.220;10.402;2023-12-07T13:26:54;3.90;99.90
13229;DHT22;6680;53.220;10.402;2023-12-07T13:29:22;3.60;99.90
13229;DHT22;6680;53.220;10.402;2023-12-07T13:31:49;3.50;99.90
13229;DHT22;6680;53.220;10.402;2023-12-07T13:34:18;3.40;99.90
13229;DHT22;6680;53.220;10.402;2023-12-07T13:36:46;3.30;99.90
13229;DHT22;6680;53.220;10.402;2023-12-07T13:39:15;3.20;99.90
13229;DHT22;6680;53.220;10.402;2023-12-07T13:41:42;3.20;99.90
13229;DHT22;6680;53.220;10.402;2023-12-07T13:44:08;3.20;99.90
13229;DHT22;6680;53.220;10.402;2023-12-07T13:46:35;3.20;99.90
13229;DHT22;6680;53.220;10.402;2023-12-07T13:49:03;3.20;99.90
13229;DHT22;6680;53.220;10.402;2023-12-07T13:51:31;3.20;99.90
13229;DHT22;6680;53.220;10.402;2023-12-07T13:53:59;3.10;99.90
13229;DHT22;6680;53.220;10.402;2023-12-07T13:56:26;3.10;99.90
13229;DHT22;6680;53.220;10.402;2023-12-07T13:58:53;3.00;99.90
13229;DHT22;6680;53.220;10.402;2023-12-07T14:01:19;3.10;99.90
13229;DHT22;6680;53.220;10.402;2023-12-07T14:03:47;3.10;99.90
13229;DHT22;6680;53.220;10.402;2023-12-07T14:06:21;3.10;99.90
13229;DHT22;6680;53.220;10.402;2023-12-07T14:08:50;3.10;99.90
13229;DHT22;6680;53.220;10.402;2023-12-07T14:11:17;3.10;99.90
13229;DHT22;6680;53.220;10.402;2023-12-07T14:13:44;3.10;99.90
13229;DHT22;6680;53.220;10.402;2023-12-07T14:16:11;3.10;99.90
13229;DHT22;6680;53.220;10.402;2023-12-07T14:21:08;3.00;99.90
13229;DHT22;6680;53.220;10.402;2023-12-07T14:23:34;2.90;99.90
13229;DHT22;6680;53.220;10.402;2023-12-07T14:26:03;3.00;99.90
13229;DHT22;6680;53.220;10.402;2023-12-07T14:28:30;3.10;99.90
13229;DHT22;6680;53.220;10.402;2023-12-07T14:30:59;3.10;99.90
13229;DHT22;6680;53.220;10.402;2023-12-07T14:33:26;2.90;99.90
13229;DHT22;6680;53.220;10.402;2023-12-07T14:35:53;3.00;99.90
13229;DHT22;6680;53.220;10.402;2023-12-07T14:38:20;2.90;99.90
13229;DHT22;6680;53.220;10.402;2023-12-07T14:40:47;2.80;99.90
13229;DHT22;6680;53.220;10.402;2023-12-07T14:43:15;2.80;99.90
13229;DHT22;6680;53.220;10.402;2023-12-07T14:45:41;2.80;99.90
13229;DHT22;6680;53.220;10.402;2023-12-07T14:48:09;2.80;99.90
13229;DHT22;6680;53.220;10.402;2023-12-07T14:50:36;2.70;99.90
13229;DHT22;6680;53.220;10.402;2023-12-07T14:53:04;2.70;99.90
13229;DHT22;6680;53.220;10.402;2023-12-07T14:55:31;2.70;99.90
13229;DHT22;6680;53.220;10.402;2023-12-07T15:00:26;2.70;99.90
13229;DHT22;6680;53.220;10.402;2023-12-07T15:02:54;2.60;99.90
13229;DHT22;6680;53.220;10.402;2023-12-07T15:05:21;2.70;99.90
13229;DHT22;6680;53.220;10.402;2023-12-07T15:07:49;2.60;99.90
13229;DHT22;6680;53.220;10.402;2023-12-07T15:10:16;2.60;99.90
13229;DHT22;6680;53.220;10.402;2023-12-07T15:17:39;2.80;99.90
13229;DHT22;6680;53.220;10.402;2023-12-07T15:20:08;2.80;99.90
13229;DHT22;6680;53.220;10.402;2023-12-07T15:22:36;2.80;99.90
13229;DHT22;6680;53.220;10.402;2023-12-07T15:25:05;2.90;99.90
13229;DHT22;6680;53.220;10.402;2023-12-07T15:27:32;2.90;99.90
13229;DHT22;6680;53.220;10.402;2023-12-07T15:29:59;3.10;99.90
13229;DHT22;6680;53.220;10.402;2023-12-07T15:34:54;3.30;99.90
13229;DHT22;6680;53.220;10.402;2023-12-07T15:37:21;3.20;99.90
13229;DHT22;6680;53.220;10.402;2023-12-07T15:39:49;3.20;99.90
13229;DHT22;6680;53.220;10.402;2023-12-07T15:42:16;3.00;99.90
13229;DHT22;6680;53.220;10.402;2023-12-07T15:44:43;3.00;99.90
13229;DHT22;6680;53.220;10.402;2023-12-07T15:47:10;3.00;99.90
13229;DHT22;6680;53.220;10.402;2023-12-07T15:49:37;3.10;99.90
13229;DHT22;6680;53.220;10.402;2023-12-07T15:52:06;3.10;99.90
13229;DHT22;6680;53.220;10.402;2023-12-07T15:54:32;3.10;99.90
13229;DHT22;6680;53.220;10.402;2023-12-07T15:57:00;3.10;99.90
13229;DHT22;6680;53.220;10.402;2023-12-07T15:59:27;3.20;99.90
13229;DHT22;6680;53.220;10.402;2023-12-07T16:01:53;3.10;99.90
13229;DHT22;6680;53.220;10.402;2023-12-07T16:04:20;3.10;99.90
13229;DHT22;6680;53.220;10.402;2023-12-07T16:09:16;3.10;99.90
13229;DHT22;6680;53.220;10.402;2023-12-07T16:11:42;3.00;99.90
13229;DHT22;6680;53.220;10.402;2023-12-07T16:14:09;2.90;99.90
13229;DHT22;6680;53.220;10.402;2023-12-07T16:16:37;3.00;99.90
13229;DHT22;6680;53.220;10.402;2023-12-07T16:19:04;2.90;99.90